createdAt,value
2022-08-08T00:00:52.258Z,84.87
2022-08-08T00:02:58.546Z,86.24
2022-08-08T00:05:44.222Z,86.41
2022-08-08T00:08:25.101Z,86.88
2022-08-08T00:11:13.131Z,86.83
2022-08-08T00:14:17.332Z,87.58
2022-08-08T00:16:57.063Z,89.20
2022-08-08T00:19:31.771Z,90.01
2022-08-08T00:22:05.107Z,91.12
2022-08-08T00:24:46.269Z,90.40
2022-08-08T00:27:19.673Z,88.36
2022-08-08T00:29:56.139Z,87.94
2022-08-08T00:32:35.219Z,87.74
2022-08-08T00:35:28.276Z,87.39
2022-08-08T00:38:30.981Z,88.74
2022-08-08T00:41:54.752Z,90.32
2022-08-08T00:44:57.652Z,90.81
2022-08-08T00:48:29.283Z,92.05
2022-08-08T00:51:38.251Z,92.64
2022-08-08T00:54:51.752Z,94.80
2022-08-08T00:58:01.791Z,94.69
2022-08-08T01:00:34.588Z,95.45
2022-08-08T01:04:02.546Z,96.62
2022-08-08T01:06:49.853Z,96.80
2022-08-08T01:09:42.594Z,97.09
2022-08-08T01:13:03.393Z,96.41
2022-08-08T01:16:04.856Z,96.43
2022-08-08T01:19:02.606Z,96.65
2022-08-08T01:22:13.226Z,96.84
2022-08-08T01:24:59.539Z,95.79
2022-08-08T01:28:00.094Z,95.07
2022-08-08T01:31:01.861Z,95.43
2022-08-08T01:34:01.142Z,96.82
2022-08-08T01:37:21.983Z,96.77
2022-08-08T01:40:24.043Z,96.75
2022-08-08T01:43:05.748Z,98.31
2022-08-08T01:45:56.728Z,99.05
2022-08-08T01:48:46.280Z,98.29
2022-08-08T01:52:43.693Z,97.94
2022-08-08T01:55:25.600Z,97.64
2022-08-08T01:58:04.607Z,97.02
2022-08-08T02:00:43.563Z,97.51
2022-08-08T02:03:57.123Z,97.45
2022-08-08T02:06:36.368Z,96.72
2022-08-08T02:10:02.333Z,97.80
2022-08-08T02:12:25.267Z,97.36
2022-08-08T02:15:04.143Z,97.56
2022-08-08T02:17:47.173Z,96.97
2022-08-08T02:21:02.777Z,97.89
2022-08-08T02:23:23.249Z,98.62
2022-08-08T02:26:10.984Z,99.46
2022-08-08T02:29:00.294Z,99.81
2022-08-08T02:31:58.934Z,100.00
2022-08-08T02:35:08.506Z,100.00
2022-08-08T02:37:56.742Z,100.00
2022-08-08T02:40:38.739Z,100.00
2022-08-08T02:44:37.810Z,100.00
2022-08-08T02:47:03.081Z,100.00
2022-08-08T02:49:57.613Z,100.00
2022-08-08T02:53:09.494Z,100.00
2022-08-08T02:56:20.879Z,100.00
2022-08-08T02:59:57.210Z,100.00
2022-08-08T03:02:51.656Z,100.00
2022-08-08T03:05:59.689Z,100.00
2022-08-08T03:09:17.444Z,100.00
2022-08-08T03:12:36.508Z,100.00
2022-08-08T03:15:56.684Z,100.00
2022-08-08T03:18:34.843Z,100.00
2022-08-08T03:21:09.620Z,100.00
2022-08-08T03:23:59.508Z,100.00
2022-08-08T03:26:32.765Z,100.00
2022-08-08T03:29:27.123Z,100.00
2022-08-08T03:32:29.129Z,100.00
2022-08-08T03:34:59.426Z,100.00
2022-08-08T03:38:54.073Z,100.00
2022-08-08T03:40:30.000Z,100.00
2022-08-08T03:43:16.674Z,100.00
2022-08-08T03:46:07.396Z,100.00
2022-08-08T03:49:30.213Z,100.00
2022-08-08T03:51:50.329Z,100.00
2022-08-08T03:54:52.067Z,100.00
2022-08-08T03:58:30.078Z,100.00
2022-08-08T04:00:11.446Z,100.00
2022-08-08T04:02:58.076Z,100.00
2022-08-08T04:05:30.423Z,100.00
2022-08-08T04:08:06.962Z,100.00
2022-08-08T04:10:37.164Z,100.00
2022-08-08T04:13:17.423Z,100.00
2022-08-08T04:15:54.748Z,100.00
2022-08-08T04:18:44.998Z,100.00
2022-08-08T04:21:23.211Z,100.00
2022-08-08T04:24:05.679Z,100.00
2022-08-08T04:26:57.178Z,100.00
2022-08-08T04:29:36.845Z,100.00
2022-08-08T04:32:10.442Z,100.00
2022-08-08T04:34:42.859Z,100.00
2022-08-08T04:37:31.915Z,100.00
2022-08-08T04:40:07.978Z,100.00
2022-08-08T04:42:57.061Z,100.00
2022-08-08T04:45:41.367Z,100.00
2022-08-08T04:48:10.942Z,100.00
2022-08-08T04:50:46.118Z,100.00
2022-08-08T04:54:36.396Z,100.00
2022-08-08T04:56:10.506Z,100.00
2022-08-08T04:58:39.009Z,100.00
2022-08-08T05:01:10.917Z,100.00
2022-08-08T05:04:10.628Z,100.00
2022-08-08T05:06:39.078Z,100.00
2022-08-08T05:09:08.640Z,100.00
2022-08-08T05:11:40.618Z,100.00
2022-08-08T05:14:14.091Z,100.00
2022-08-08T05:16:53.369Z,100.00
2022-08-08T05:20:09.655Z,100.00
2022-08-08T05:22:19.092Z,100.00
2022-08-08T05:24:51.858Z,100.00
2022-08-08T05:27:23.045Z,100.00
2022-08-08T05:29:56.512Z,100.00
2022-08-08T05:32:36.623Z,100.00
2022-08-08T05:35:09.749Z,100.00
2022-08-08T05:37:53.686Z,100.00
2022-08-08T05:40:31.194Z,100.00
2022-08-08T05:43:38.885Z,100.00
2022-08-08T05:46:03.509Z,100.00
2022-08-08T05:48:36.176Z,100.00
2022-08-08T05:51:13.337Z,100.00
2022-08-08T05:54:25.658Z,100.00
2022-08-08T05:56:42.456Z,100.00
2022-08-08T06:00:00.994Z,100.00
2022-08-08T06:02:50.945Z,100.00
2022-08-08T06:05:34.349Z,100.00
2022-08-08T06:08:33.582Z,100.00
2022-08-08T06:11:02.700Z,100.00
2022-08-08T06:13:36.109Z,100.00
2022-08-08T06:16:18.973Z,100.00
2022-08-08T06:19:16.909Z,100.00
2022-08-08T06:21:57.025Z,100.00
2022-08-08T06:24:51.277Z,100.00
2022-08-08T06:27:32.278Z,99.74
2022-08-08T06:30:05.491Z,100.00
2022-08-08T06:32:47.781Z,98.18
2022-08-08T06:36:06.924Z,98.68
2022-08-08T06:38:14.630Z,98.39
2022-08-08T06:40:54.054Z,98.33
2022-08-08T06:43:28.589Z,97.29
2022-08-08T06:46:03.773Z,97.97
2022-08-08T06:48:31.915Z,97.20
2022-08-08T06:51:07.391Z,95.89
2022-08-08T06:53:39.746Z,94.61
2022-08-08T06:56:11.564Z,93.54
2022-08-08T06:58:45.056Z,93.36
2022-08-08T07:02:17.157Z,94.04
2022-08-08T07:04:37.202Z,92.08
2022-08-08T07:07:10.464Z,90.73
2022-08-08T07:09:59.345Z,89.66
2022-08-08T07:12:39.615Z,89.30
2022-08-08T07:15:15.394Z,89.28
2022-08-08T07:18:35.546Z,88.42
2022-08-08T07:21:02.135Z,87.62
2022-08-08T07:24:01.687Z,86.00
2022-08-08T07:26:35.596Z,84.56
2022-08-08T07:29:08.216Z,84.13
2022-08-08T07:31:48.988Z,84.04
2022-08-08T07:34:20.236Z,82.88
2022-08-08T07:37:11.827Z,81.73
2022-08-08T07:39:56.152Z,80.45
2022-08-08T07:42:33.231Z,79.59
2022-08-08T07:45:04.313Z,79.63
2022-08-08T07:47:38.435Z,80.03
2022-08-08T07:50:11.135Z,79.10
2022-08-08T07:52:44.371Z,77.80
2022-08-08T07:55:28.873Z,77.86
2022-08-08T07:58:17.682Z,77.52
2022-08-08T08:00:52.227Z,77.31
2022-08-08T08:03:31.190Z,76.37
2022-08-08T08:06:16.518Z,75.52
2022-08-08T08:08:53.099Z,74.49
2022-08-08T08:11:38.307Z,73.11
2022-08-08T08:14:25.948Z,72.14
2022-08-08T08:16:54.282Z,71.42
2022-08-08T08:19:45.198Z,71.74
2022-08-08T08:22:16.062Z,70.12
2022-08-08T08:24:59.656Z,70.77
2022-08-08T08:27:37.781Z,69.93
2022-08-08T08:30:09.583Z,68.18
2022-08-08T08:32:41.103Z,68.45
2022-08-08T08:35:21.778Z,69.07
2022-08-08T08:38:17.390Z,69.07
2022-08-08T08:40:51.347Z,66.51
2022-08-08T08:43:28.922Z,66.40
2022-08-08T08:46:03.441Z,65.99
2022-08-08T08:48:34.764Z,65.20
2022-08-08T08:51:04.601Z,64.80
2022-08-08T08:53:56.299Z,65.41
2022-08-08T08:56:32.808Z,63.98
2022-08-08T08:59:09.052Z,63.71
2022-08-08T09:01:52.483Z,62.34
2022-08-08T09:04:43.379Z,60.86
2022-08-08T09:07:23.879Z,61.42
2022-08-08T09:10:13.559Z,61.82
2022-08-08T09:12:47.577Z,60.50
2022-08-08T09:15:41.602Z,60.45
2022-08-08T09:18:09.614Z,59.58
2022-08-08T09:22:02.431Z,59.12
2022-08-08T09:23:33.320Z,59.36
2022-08-08T09:26:12.509Z,57.06
2022-08-08T09:28:41.740Z,56.86
2022-08-08T09:31:17.397Z,57.49
2022-08-08T09:34:30.539Z,56.79
2022-08-08T09:36:51.634Z,56.73
2022-08-08T09:39:44.074Z,57.11
2022-08-08T09:42:21.708Z,56.71
2022-08-08T09:45:03.920Z,56.29
2022-08-08T09:48:09.539Z,55.37
2022-08-08T09:50:28.310Z,54.09
2022-08-08T09:53:05.530Z,54.12
2022-08-08T09:56:04.954Z,54.02
2022-08-08T09:58:40.644Z,54.05
2022-08-08T10:01:14.435Z,53.45
2022-08-08T10:03:55.987Z,52.12
2022-08-08T10:06:29.718Z,50.83
2022-08-08T10:08:57.922Z,51.67
2022-08-08T10:12:26.934Z,51.60
2022-08-08T10:14:28.139Z,50.55
2022-08-08T10:17:38.523Z,51.03
2022-08-08T10:19:58.570Z,49.10
2022-08-08T10:22:32.298Z,49.29
2022-08-08T10:25:05.400Z,48.54
2022-08-08T10:27:43.103Z,48.30
2022-08-08T10:30:16.651Z,48.65
2022-08-08T10:33:01.659Z,47.12
2022-08-08T10:36:08.437Z,47.74
2022-08-08T10:38:23.988Z,48.09
2022-08-08T10:40:53.778Z,48.41
2022-08-08T10:43:24.915Z,46.34
2022-08-08T10:46:00.583Z,46.20
2022-08-08T10:48:56.750Z,45.23
2022-08-08T10:51:26.581Z,45.72
2022-08-08T10:54:02.306Z,44.90
2022-08-08T10:56:35.210Z,43.61
2022-08-08T10:59:07.798Z,42.71
2022-08-08T11:01:39.227Z,41.86
2022-08-08T11:04:10.791Z,41.53
2022-08-08T11:06:41.965Z,41.77
2022-08-08T11:09:21.150Z,40.34
2022-08-08T11:12:05.731Z,39.95
2022-08-08T11:14:56.893Z,40.70
2022-08-08T11:17:58.044Z,41.64
2022-08-08T11:20:18.278Z,41.89
2022-08-08T11:22:54.006Z,41.31
2022-08-08T11:25:52.639Z,41.41
2022-08-08T11:28:20.871Z,41.10
2022-08-08T11:30:51.963Z,40.71
2022-08-08T11:33:49.623Z,41.59
2022-08-08T11:36:15.804Z,39.65
2022-08-08T11:38:54.703Z,39.07
2022-08-08T11:41:28.269Z,38.69
2022-08-08T11:44:02.991Z,39.63
2022-08-08T11:46:34.407Z,40.36
2022-08-08T11:49:11.315Z,39.33
2022-08-08T11:51:49.753Z,38.50
2022-08-08T11:54:33.975Z,37.58
2022-08-08T11:57:17.374Z,38.11
2022-08-08T12:00:01.204Z,38.85
2022-08-08T12:02:51.359Z,37.26
2022-08-08T12:05:22.910Z,37.71
2022-08-08T12:07:56.058Z,37.40
2022-08-08T12:10:26.648Z,37.08
2022-08-08T12:13:04.256Z,37.70
2022-08-08T12:15:42.763Z,37.41
2022-08-08T12:18:20.638Z,36.99
2022-08-08T12:20:49.945Z,36.57
2022-08-08T12:23:30.541Z,34.50
2022-08-08T12:26:17.078Z,34.54
2022-08-08T12:28:57.149Z,34.82
2022-08-08T12:31:39.347Z,35.08
2022-08-08T12:34:37.598Z,35.02
2022-08-08T12:37:08.191Z,35.29
2022-08-08T12:40:01.365Z,34.83
2022-08-08T12:42:27.412Z,33.81
2022-08-08T12:45:58.483Z,34.73
2022-08-08T12:48:10.398Z,34.88
2022-08-08T12:50:54.470Z,33.92
2022-08-08T12:53:30.009Z,33.55
2022-08-08T12:56:17.777Z,33.26
2022-08-08T12:58:49.010Z,32.77
2022-08-08T13:01:24.770Z,33.26
2022-08-08T13:04:19.293Z,32.07
2022-08-08T13:06:54.628Z,32.17
2022-08-08T13:10:01.947Z,32.01
2022-08-08T13:12:30.621Z,31.97
2022-08-08T13:15:02.219Z,31.76
2022-08-08T13:18:08.594Z,31.74
2022-08-08T13:20:27.447Z,32.23
2022-08-08T13:23:31.414Z,31.36
2022-08-08T13:25:50.356Z,34.51
2022-08-08T13:28:32.423Z,31.78
2022-08-08T13:31:03.734Z,29.76
2022-08-08T13:33:42.722Z,29.84
2022-08-08T13:36:12.111Z,29.91
2022-08-08T13:38:40.894Z,30.22
2022-08-08T13:41:16.829Z,29.84
2022-08-08T13:43:46.981Z,30.64
2022-08-08T13:46:26.360Z,29.44
2022-08-08T13:49:12.225Z,29.77
2022-08-08T13:52:00.817Z,29.78
2022-08-08T13:54:31.774Z,36.10
2022-08-08T13:57:01.606Z,39.75
2022-08-08T13:59:33.005Z,32.70
2022-08-08T14:02:07.260Z,31.19
2022-08-08T14:04:52.929Z,30.06
2022-08-08T14:07:29.803Z,28.88
2022-08-08T14:10:05.605Z,28.56
2022-08-08T14:12:43.901Z,28.25
2022-08-08T14:15:31.450Z,28.27
2022-08-08T14:18:34.634Z,27.85
2022-08-08T14:21:12.619Z,28.47
2022-08-08T14:24:06.572Z,27.94
2022-08-08T14:26:41.570Z,28.19
2022-08-08T14:29:28.946Z,27.66
2022-08-08T14:32:09.275Z,27.85
2022-08-08T14:34:43.512Z,26.33
2022-08-08T14:37:18.020Z,25.95
2022-08-08T14:39:50.929Z,26.49
2022-08-08T14:42:29.687Z,27.17
2022-08-08T14:45:02.933Z,25.94
2022-08-08T14:47:36.561Z,26.02
2022-08-08T14:50:21.289Z,25.78
2022-08-08T14:52:57.865Z,25.88
2022-08-08T14:55:35.367Z,25.72
2022-08-08T14:58:12.020Z,25.41
2022-08-08T15:00:44.705Z,25.09
2022-08-08T15:03:15.734Z,24.74
2022-08-08T15:05:52.739Z,24.00
2022-08-08T15:08:34.370Z,24.25
2022-08-08T15:11:04.248Z,24.00
2022-08-08T15:13:39.772Z,23.67
2022-08-08T15:16:11.690Z,24.16
2022-08-08T15:18:49.942Z,23.48
2022-08-08T15:21:19.568Z,23.46
2022-08-08T15:23:52.720Z,22.92
2022-08-08T15:26:25.489Z,22.41
2022-08-08T15:28:56.050Z,23.30
2022-08-08T15:32:02.823Z,22.30
2022-08-08T15:34:18.411Z,22.07
2022-08-08T15:36:57.566Z,21.42
2022-08-08T15:39:28.815Z,21.24
2022-08-08T15:42:02.489Z,21.15
2022-08-08T15:44:31.390Z,20.29
2022-08-08T15:46:59.543Z,20.67
2022-08-08T15:49:29.493Z,19.90
2022-08-08T15:51:57.648Z,19.68
2022-08-08T15:54:38.377Z,19.38
2022-08-08T15:57:09.317Z,18.92
2022-08-08T16:00:05.882Z,17.79
2022-08-08T16:02:30.727Z,16.79
2022-08-08T16:04:59.954Z,16.07
2022-08-08T16:07:39.298Z,15.65
2022-08-08T16:13:08.672Z,14.82
2022-08-08T16:13:30.282Z,14.37
2022-08-08T16:15:57.112Z,14.15
2022-08-08T16:18:36.861Z,13.53
2022-08-08T16:21:05.936Z,13.74
2022-08-08T16:23:48.865Z,13.14
2022-08-08T16:26:32.968Z,13.31
2022-08-08T16:29:04.095Z,13.03
2022-08-08T16:31:37.228Z,13.11
2022-08-08T16:34:06.127Z,12.85
2022-08-08T16:36:34.867Z,13.12
2022-08-08T16:39:09.589Z,13.21
2022-08-08T16:41:51.329Z,13.69
2022-08-08T16:44:27.734Z,13.88
2022-08-08T16:47:16.869Z,14.36
2022-08-08T16:49:44.960Z,13.96
2022-08-08T16:55:03.837Z,14.02
2022-08-08T16:55:33.876Z,14.00
2022-08-08T16:58:14.326Z,14.89
2022-08-08T17:00:48.783Z,16.01
2022-08-08T17:03:25.476Z,16.88
2022-08-08T17:06:35.251Z,17.23
2022-08-08T17:08:56.534Z,17.87
2022-08-08T17:11:28.405Z,17.68
2022-08-08T17:14:11.625Z,18.19
2022-08-08T17:16:57.472Z,18.53
2022-08-08T17:19:28.960Z,19.34
2022-08-08T17:22:01.563Z,18.87
2022-08-08T17:24:31.672Z,19.09
2022-08-08T17:27:00.466Z,19.28
2022-08-08T17:29:33.991Z,20.24
2022-08-08T17:32:07.929Z,20.99
2022-08-08T17:34:59.952Z,20.75
2022-08-08T17:37:27.576Z,20.59
2022-08-08T17:40:10.878Z,21.05
2022-08-08T17:42:47.166Z,21.96
2022-08-08T17:45:24.332Z,22.61
2022-08-08T17:47:54.758Z,23.38
2022-08-08T17:50:24.825Z,24.24
2022-08-08T17:52:56.477Z,24.78
2022-08-08T17:56:06.064Z,25.34
2022-08-08T17:58:17.827Z,25.33
2022-08-08T18:00:54.408Z,26.03
2022-08-08T18:03:25.340Z,26.52
2022-08-08T18:05:53.326Z,27.08
2022-08-08T18:08:37.910Z,27.45
2022-08-08T18:11:14.640Z,28.00
2022-08-08T18:13:45.694Z,28.24
2022-08-08T18:16:20.275Z,28.64
2022-08-08T18:18:52.754Z,29.25
2022-08-08T18:21:35.317Z,29.59
2022-08-08T18:24:19.191Z,29.89
2022-08-08T18:26:54.924Z,30.85
2022-08-08T18:29:29.522Z,31.09
2022-08-08T18:32:00.234Z,31.76
2022-08-08T18:34:33.368Z,31.79
2022-08-08T18:37:03.030Z,32.39
2022-08-08T18:39:34.747Z,32.67
2022-08-08T18:42:14.242Z,33.38
2022-08-08T18:44:54.738Z,33.93
2022-08-08T18:47:26.237Z,34.40
2022-08-08T18:50:00.460Z,34.09
2022-08-08T18:52:33.751Z,34.43
2022-08-08T18:55:10.777Z,35.53
2022-08-08T18:57:44.986Z,35.77
2022-08-08T19:00:20.611Z,35.81
2022-08-08T19:03:03.977Z,35.93
2022-08-08T19:05:37.955Z,36.01
2022-08-08T19:08:25.621Z,36.53
2022-08-08T19:11:01.907Z,36.75
2022-08-08T19:13:52.750Z,37.51
2022-08-08T19:16:23.703Z,38.24
2022-08-08T19:19:03.104Z,39.34
2022-08-08T19:21:33.226Z,40.36
2022-08-08T19:24:41.788Z,41.39
2022-08-08T19:27:04.204Z,41.56
2022-08-08T19:29:34.023Z,42.06
2022-08-08T19:32:03.584Z,42.73
2022-08-08T19:34:42.702Z,42.08
2022-08-08T19:37:16.125Z,42.71
2022-08-08T19:39:46.044Z,43.48
2022-08-08T19:42:19.042Z,43.32
2022-08-08T19:44:50.594Z,44.11
2022-08-08T19:47:24.669Z,44.31
2022-08-08T19:49:59.592Z,44.30
2022-08-08T19:52:34.653Z,45.07
2022-08-08T19:55:08.796Z,45.34
2022-08-08T19:57:37.861Z,45.47
2022-08-08T20:00:11.545Z,45.25
2022-08-08T20:02:57.726Z,45.96
2022-08-08T20:06:16.147Z,46.50
2022-08-08T20:08:28.279Z,47.00
2022-08-08T20:11:00.245Z,47.09
2022-08-08T20:14:31.492Z,46.83
2022-08-08T20:16:18.054Z,47.30
2022-08-08T20:18:52.569Z,47.75
2022-08-08T20:21:25.807Z,48.70
2022-08-08T20:23:58.011Z,48.76
2022-08-08T20:26:33.402Z,49.07
2022-08-08T20:29:02.954Z,49.67
2022-08-08T20:32:07.661Z,50.04
2022-08-08T20:34:28.823Z,50.28
2022-08-08T20:37:00.766Z,50.80
2022-08-08T20:39:39.149Z,50.76
2022-08-08T20:42:20.410Z,50.96
2022-08-08T20:44:52.494Z,51.83
2022-08-08T20:47:36.251Z,52.03
2022-08-08T20:50:09.996Z,52.57
2022-08-08T20:52:40.702Z,52.95
2022-08-08T20:55:25.739Z,52.92
2022-08-08T20:57:54.456Z,52.83
2022-08-08T21:00:26.447Z,53.42
2022-08-08T21:02:54.662Z,53.83
2022-08-08T21:05:23.197Z,53.90
2022-08-08T21:08:33.545Z,53.91
2022-08-08T21:10:41.539Z,55.13
2022-08-08T21:13:10.157Z,56.63
2022-08-08T21:16:03.929Z,56.60
2022-08-08T21:18:27.979Z,57.45
2022-08-08T21:20:56.428Z,58.81
2022-08-08T21:23:58.884Z,59.55
2022-08-08T21:26:21.002Z,60.14
2022-08-08T21:29:01.084Z,60.94
2022-08-08T21:31:53.038Z,61.35
2022-08-08T21:34:19.541Z,61.90
2022-08-08T21:36:48.781Z,62.24
2022-08-08T21:39:19.594Z,63.05
2022-08-08T21:41:53.780Z,63.73
2022-08-08T21:44:29.616Z,63.91
2022-08-08T21:48:04.029Z,63.97
2022-08-08T21:49:48.619Z,62.84
2022-08-08T21:54:22.583Z,62.92
2022-08-08T21:56:06.574Z,63.00
2022-08-08T21:58:05.441Z,63.43
2022-08-08T22:00:40.897Z,61.99
2022-08-08T22:03:10.923Z,61.87
2022-08-08T22:05:43.716Z,61.88
2022-08-08T22:08:12.480Z,62.10
2022-08-08T22:10:45.209Z,61.43
2022-08-08T22:13:21.406Z,61.45
2022-08-08T22:15:58.780Z,62.56
2022-08-08T22:18:32.869Z,63.28
2022-08-08T22:21:14.602Z,63.24
2022-08-08T22:23:51.603Z,64.00
2022-08-08T22:26:28.806Z,64.06
2022-08-08T22:29:04.612Z,64.01
2022-08-08T22:31:43.918Z,64.11
2022-08-08T22:34:27.153Z,65.33
2022-08-08T22:36:55.281Z,65.82
2022-08-08T22:39:23.377Z,65.42
2022-08-08T22:42:11.354Z,65.97
2022-08-08T22:44:41.847Z,66.52
2022-08-08T22:47:17.953Z,66.61
2022-08-08T22:49:53.709Z,66.46
2022-08-08T22:52:33.576Z,67.05
2022-08-08T22:55:05.548Z,68.13
2022-08-08T22:57:44.338Z,68.83
2022-08-08T23:00:18.163Z,69.82
2022-08-08T23:02:50.428Z,70.26
2022-08-08T23:05:21.546Z,70.81
2022-08-08T23:07:57.478Z,71.29
2022-08-08T23:10:27.737Z,72.42
2022-08-08T23:12:57.076Z,72.70
2022-08-08T23:16:38.996Z,72.94
2022-08-08T23:18:13.275Z,73.91
2022-08-08T23:20:44.157Z,74.06
2022-08-08T23:23:13.264Z,75.74
2022-08-08T23:25:48.255Z,75.56
2022-08-08T23:28:19.139Z,76.47
2022-08-08T23:30:47.966Z,78.07
2022-08-08T23:33:21.294Z,78.21
2022-08-08T23:36:08.237Z,79.14
2022-08-08T23:38:44.540Z,80.18
2022-08-08T23:41:24.907Z,79.45
2022-08-08T23:43:56.901Z,80.78
2022-08-08T23:49:04.618Z,83.05
2022-08-08T23:49:18.777Z,82.73
2022-08-08T23:52:04.029Z,84.64
2022-08-08T23:54:42.478Z,84.84
2022-08-08T23:57:27.458Z,86.49
